createdAt,value
2023-07-01T00:04:27.055Z,16.58
2023-07-01T00:09:31.326Z,16.54
2023-07-01T00:14:35.156Z,16.46
2023-07-01T00:19:39.020Z,16.39
2023-07-01T00:24:42.915Z,16.37
2023-07-01T00:29:46.663Z,16.33
2023-07-01T00:34:50.465Z,16.27
2023-07-01T00:39:55.224Z,16.14
2023-07-01T00:44:59.891Z,16.01
2023-07-01T00:50:04.302Z,15.92
2023-07-01T00:55:10.971Z,15.87
2023-07-01T01:00:15.849Z,15.80
2023-07-01T01:05:25.247Z,15.75
2023-07-01T01:10:29.770Z,15.80
2023-07-01T01:15:33.844Z,15.82
2023-07-01T01:20:40.568Z,15.73
2023-07-01T01:25:57.083Z,15.68
2023-07-01T01:31:03.050Z,15.73
2023-07-01T01:36:11.792Z,15.79
2023-07-01T01:41:26.889Z,15.86
2023-07-01T01:46:32.007Z,15.92
2023-07-01T01:51:37.781Z,15.96
2023-07-01T01:56:42.765Z,15.96
2023-07-01T02:01:47.339Z,15.95
2023-07-01T02:06:51.636Z,15.95
2023-07-01T02:11:56.243Z,15.99
2023-07-01T02:17:00.224Z,16.05
2023-07-01T02:22:05.148Z,16.11
2023-07-01T02:27:09.850Z,16.17
2023-07-01T02:32:13.607Z,16.23
2023-07-01T02:37:17.466Z,16.30
2023-07-01T02:42:21.955Z,16.36
2023-07-01T02:47:25.628Z,16.44
2023-07-01T02:52:29.668Z,16.48
2023-07-01T02:57:33.507Z,16.54
2023-07-01T03:02:37.442Z,16.53
2023-07-01T03:07:41.186Z,16.54
2023-07-01T03:12:44.907Z,16.57
2023-07-01T03:17:51.874Z,16.64
2023-07-01T03:22:58.387Z,16.69
2023-07-01T03:28:02.400Z,16.71
2023-07-01T03:33:07.873Z,16.73
2023-07-01T03:38:11.946Z,16.80
2023-07-01T03:43:16.425Z,16.89
2023-07-01T03:48:20.103Z,16.98
2023-07-01T03:53:23.910Z,17.06
2023-07-01T03:58:27.753Z,17.05
2023-07-01T04:03:31.926Z,17.04
2023-07-01T04:08:35.915Z,17.07
2023-07-01T04:13:39.737Z,17.10
2023-07-01T04:18:43.441Z,17.16
2023-07-01T04:23:47.307Z,17.22
2023-07-01T04:28:51.105Z,17.32
2023-07-01T04:33:55.988Z,17.38
2023-07-01T04:39:00.475Z,17.40
2023-07-01T04:44:04.858Z,17.45
2023-07-01T04:49:10.515Z,17.50
2023-07-01T04:54:14.346Z,17.58
2023-07-01T04:59:18.148Z,17.72
2023-07-01T05:04:22.118Z,17.90
2023-07-01T05:09:25.911Z,18.03
2023-07-01T05:14:29.539Z,18.15
2023-07-01T05:19:33.461Z,18.32
2023-07-01T05:24:37.511Z,18.66
2023-07-01T05:29:41.432Z,18.82
2023-07-01T05:34:45.258Z,18.81
2023-07-01T05:39:49.033Z,18.82
2023-07-01T05:44:52.862Z,18.84
2023-07-01T05:49:56.638Z,18.82
2023-07-01T05:55:00.369Z,18.74
2023-07-01T06:00:06.238Z,18.68
2023-07-01T06:05:15.626Z,18.70
2023-07-01T06:10:19.383Z,18.88
2023-07-01T06:15:23.172Z,18.96
2023-07-01T06:20:27.022Z,19.06
2023-07-01T06:25:30.925Z,19.09
2023-07-01T06:30:34.930Z,19.11
2023-07-01T06:35:43.298Z,19.05
2023-07-01T06:40:47.719Z,18.99
2023-07-01T06:45:53.430Z,18.92
2023-07-01T06:50:57.257Z,18.92
2023-07-01T06:56:01.130Z,19.01
2023-07-01T07:01:05.243Z,19.15
2023-07-01T07:06:11.369Z,19.24
2023-07-01T07:11:15.297Z,19.27
2023-07-01T07:16:19.237Z,19.38
2023-07-01T07:21:23.143Z,19.50
2023-07-01T07:26:26.925Z,19.49
2023-07-01T07:31:30.814Z,19.48
2023-07-01T07:36:34.572Z,19.50
2023-07-01T07:41:38.252Z,19.56
2023-07-01T07:46:46.559Z,19.60
2023-07-01T07:51:53.029Z,19.70
2023-07-01T07:57:00.712Z,19.70
2023-07-01T08:02:05.013Z,19.74
2023-07-01T08:07:09.473Z,19.86
2023-07-01T08:12:13.252Z,19.94
2023-07-01T08:17:17.155Z,20.06
2023-07-01T08:22:22.114Z,20.08
2023-07-01T08:27:26.000Z,20.50
2023-07-01T08:32:30.004Z,21.02
2023-07-01T08:37:34.377Z,21.13
2023-07-01T08:43:00.627Z,20.86
2023-07-01T08:48:06.916Z,20.76
2023-07-01T08:53:11.982Z,20.72
2023-07-01T08:58:16.401Z,20.86
2023-07-01T09:03:21.408Z,20.97
2023-07-01T09:08:25.184Z,21.08
2023-07-01T09:13:31.490Z,21.17
2023-07-01T09:18:36.259Z,21.14
2023-07-01T09:23:40.063Z,21.21
2023-07-01T09:28:46.123Z,21.32
2023-07-01T09:34:04.774Z,21.45
2023-07-01T09:39:08.683Z,21.50
2023-07-01T09:44:18.061Z,21.62
2023-07-01T09:49:22.017Z,21.86
2023-07-01T09:54:30.406Z,22.18
2023-07-01T09:59:34.218Z,22.58
2023-07-01T10:04:40.124Z,22.85
2023-07-01T10:09:45.470Z,22.87
2023-07-01T10:14:52.523Z,23.10
2023-07-01T10:19:57.158Z,23.14
2023-07-01T10:25:07.378Z,23.41
2023-07-01T10:30:14.965Z,23.75
2023-07-01T10:35:19.033Z,23.79
2023-07-01T10:40:31.968Z,23.74
2023-07-01T10:45:39.082Z,24.11
2023-07-01T10:51:06.519Z,24.59
2023-07-01T10:56:13.101Z,24.51
2023-07-01T11:01:42.908Z,24.38
2023-07-01T11:06:54.304Z,24.53
2023-07-01T11:11:58.868Z,24.88
2023-07-01T11:17:17.300Z,25.05
2023-07-01T11:22:21.420Z,25.30
2023-07-01T11:27:25.257Z,25.13
2023-07-01T11:32:29.121Z,25.39
2023-07-01T11:37:33.170Z,25.61
2023-07-01T11:42:37.491Z,25.28
2023-07-01T11:47:47.597Z,25.19
2023-07-01T11:52:51.309Z,25.37
2023-07-01T11:57:55.109Z,25.54
2023-07-01T12:02:58.933Z,25.73
2023-07-01T12:08:02.905Z,25.85
2023-07-01T12:13:07.612Z,25.78
2023-07-01T12:18:26.238Z,25.85
2023-07-01T12:23:30.360Z,25.98
2023-07-01T12:28:34.232Z,26.25
2023-07-01T12:33:38.584Z,26.47
2023-07-01T12:38:42.846Z,26.58
2023-07-01T12:43:49.177Z,26.46
2023-07-01T12:48:52.959Z,26.60
2023-07-01T12:54:15.031Z,26.02
2023-07-01T12:59:23.264Z,25.43
2023-07-01T13:04:30.862Z,25.65
2023-07-01T13:09:44.535Z,26.15
2023-07-01T13:14:48.276Z,26.36
2023-07-01T13:19:53.924Z,26.39
2023-07-01T13:24:57.844Z,25.69
2023-07-01T13:30:02.365Z,25.05
2023-07-01T13:35:07.443Z,24.64
2023-07-01T13:40:12.561Z,24.30
2023-07-01T13:45:28.058Z,24.05
2023-07-01T13:50:31.915Z,23.91
2023-07-01T13:55:35.809Z,23.52
2023-07-01T14:00:42.404Z,22.71
2023-07-01T14:05:47.353Z,22.22
2023-07-01T14:10:51.946Z,22.49
2023-07-01T14:15:57.122Z,22.87
2023-07-01T14:21:06.809Z,23.15
2023-07-01T14:26:18.419Z,23.36
2023-07-01T14:31:31.956Z,23.54
2023-07-01T14:36:44.881Z,23.83
2023-07-01T14:41:51.720Z,24.01
2023-07-01T14:46:55.900Z,24.50
2023-07-01T14:52:00.112Z,24.82
2023-07-01T14:57:05.081Z,24.80
2023-07-01T15:02:09.207Z,24.93
2023-07-01T15:07:13.359Z,24.77
2023-07-01T15:12:19.205Z,24.71
2023-07-01T15:17:23.376Z,24.75
2023-07-01T15:22:27.049Z,24.68
2023-07-01T15:27:30.839Z,24.94
2023-07-01T15:32:35.062Z,24.76
2023-07-01T15:37:38.832Z,24.80
2023-07-01T15:42:44.306Z,24.74
2023-07-01T15:47:49.331Z,24.56
2023-07-01T15:52:53.218Z,24.29
2023-07-01T15:57:56.946Z,24.16
2023-07-01T16:03:00.844Z,24.09
2023-07-01T16:08:06.821Z,24.08
2023-07-01T16:13:38.030Z,24.03
2023-07-01T16:18:46.655Z,24.08
2023-07-01T16:23:55.714Z,24.17
2023-07-01T16:28:59.784Z,24.28
2023-07-01T16:34:09.868Z,24.30
2023-07-01T16:39:13.676Z,24.42
2023-07-01T16:44:17.476Z,24.45
2023-07-01T16:49:21.405Z,24.54
2023-07-01T16:54:39.246Z,25.15
2023-07-01T16:59:47.258Z,26.14
2023-07-01T17:04:51.409Z,26.83
2023-07-01T17:09:55.441Z,27.38
2023-07-01T17:15:00.993Z,27.45
2023-07-01T17:20:10.524Z,27.76
2023-07-01T17:25:14.617Z,27.76
2023-07-01T17:30:18.376Z,27.53
2023-07-01T17:35:24.641Z,27.06
2023-07-01T17:40:28.771Z,26.55
2023-07-01T17:45:32.679Z,26.57
2023-07-01T17:50:39.591Z,26.05
2023-07-01T17:55:44.159Z,25.38
2023-07-01T18:00:52.477Z,24.97
2023-07-01T18:05:56.993Z,24.59
2023-07-01T18:11:00.823Z,24.21
2023-07-01T18:16:05.047Z,23.84
2023-07-01T18:21:09.223Z,23.29
2023-07-01T18:26:13.054Z,22.59
2023-07-01T18:31:18.928Z,21.98
2023-07-01T18:36:23.065Z,21.43
2023-07-01T18:41:27.436Z,21.00
2023-07-01T18:46:32.812Z,20.62
2023-07-01T18:51:37.206Z,20.26
2023-07-01T18:56:42.246Z,19.99
2023-07-01T19:01:46.317Z,19.76
2023-07-01T19:06:50.760Z,19.51
2023-07-01T19:11:56.007Z,19.27
2023-07-01T19:17:00.379Z,19.07
2023-07-01T19:22:05.194Z,18.85
2023-07-01T19:27:09.211Z,18.66
2023-07-01T19:32:14.573Z,18.48
2023-07-01T19:37:18.729Z,18.30
2023-07-01T19:42:25.516Z,18.16
2023-07-01T19:47:30.593Z,18.04
2023-07-01T19:52:41.485Z,17.95
2023-07-01T19:57:45.629Z,17.86
2023-07-01T20:02:50.328Z,17.84
2023-07-01T20:07:55.238Z,17.85
2023-07-01T20:13:04.697Z,17.85
2023-07-01T20:18:09.016Z,17.86
2023-07-01T20:23:13.949Z,17.89
2023-07-01T20:28:32.570Z,17.91
2023-07-01T20:33:40.649Z,17.91
2023-07-01T20:38:44.573Z,17.91
2023-07-01T20:43:48.884Z,17.91
2023-07-01T20:48:53.090Z,17.89
2023-07-01T20:53:57.762Z,17.84
2023-07-01T20:59:01.694Z,17.75
2023-07-01T21:04:06.089Z,17.68
2023-07-01T21:09:16.540Z,17.62
2023-07-01T21:14:20.704Z,17.56
2023-07-01T21:19:25.050Z,17.54
2023-07-01T21:24:29.126Z,17.55
2023-07-01T21:29:32.958Z,17.58
2023-07-01T21:34:36.727Z,17.67
2023-07-01T21:39:40.448Z,17.70
2023-07-01T21:44:44.297Z,17.71
2023-07-01T21:49:48.053Z,17.70
2023-07-01T21:54:51.890Z,17.66
2023-07-01T21:59:55.645Z,17.64
2023-07-01T22:04:59.357Z,17.66
2023-07-01T22:10:03.144Z,17.68
2023-07-01T22:15:07.745Z,17.66
2023-07-01T22:20:11.883Z,17.73
2023-07-01T22:25:15.683Z,17.75
2023-07-01T22:30:20.227Z,17.77
2023-07-01T22:35:24.144Z,17.82
2023-07-01T22:40:27.944Z,17.84
2023-07-01T22:45:31.716Z,17.87
2023-07-01T22:50:36.451Z,17.90
2023-07-01T22:55:40.582Z,17.95
2023-07-01T23:00:45.085Z,17.98
2023-07-01T23:05:49.255Z,17.99
2023-07-01T23:10:53.752Z,17.99
2023-07-01T23:15:57.612Z,17.95
2023-07-01T23:21:01.815Z,17.95
2023-07-01T23:26:05.636Z,17.94
2023-07-01T23:31:09.711Z,17.96
2023-07-01T23:36:13.514Z,17.98
2023-07-01T23:41:17.498Z,17.98
2023-07-01T23:46:21.230Z,17.97
2023-07-01T23:51:24.918Z,17.93
2023-07-01T23:56:28.793Z,17.85
